sensor_id;sensor_type;location;lat;lon;timestamp;P1;durP1;ratioP1;P2;durP2;ratioP2
63120;SDS011;54478;48.684;20.114;2023-04-25T00:01:52;20.63;;;13.02;;
63120;SDS011;54478;48.684;20.114;2023-04-25T00:04:20;19.33;;;12.88;;
63120;SDS011;54478;48.684;20.114;2023-04-25T00:06:49;23.23;;;13.10;;
63120;SDS011;54478;48.684;20.114;2023-04-25T00:09:17;24.45;;;13.15;;
63120;SDS011;54478;48.684;20.114;2023-04-25T00:11:45;21.55;;;13.30;;
63120;SDS011;54478;48.684;20.114;2023-04-25T00:14:13;22.85;;;13.13;;
63120;SDS011;54478;48.684;20.114;2023-04-25T00:16:42;22.95;;;13.48;;
63120;SDS011;54478;48.684;20.114;2023-04-25T00:19:11;18.85;;;11.50;;
63120;SDS011;54478;48.684;20.114;2023-04-25T00:21:38;17.95;;;11.43;;
63120;SDS011;54478;48.684;20.114;2023-04-25T00:24:08;23.00;;;12.35;;
63120;SDS011;54478;48.684;20.114;2023-04-25T00:26:36;17.67;;;11.60;;
63120;SDS011;54478;48.684;20.114;2023-04-25T00:29:05;17.23;;;11.82;;
63120;SDS011;54478;48.684;20.114;2023-04-25T00:31:33;17.40;;;11.50;;
63120;SDS011;54478;48.684;20.114;2023-04-25T00:34:01;19.55;;;11.65;;
63120;SDS011;54478;48.684;20.114;2023-04-25T00:36:29;20.30;;;10.88;;
63120;SDS011;54478;48.684;20.114;2023-04-25T00:38:58;14.82;;;10.02;;
63120;SDS011;54478;48.684;20.114;2023-04-25T00:41:26;16.45;;;10.70;;
63120;SDS011;54478;48.684;20.114;2023-04-25T00:43:54;19.77;;;11.75;;
63120;SDS011;54478;48.684;20.114;2023-04-25T00:46:23;16.95;;;10.85;;
63120;SDS011;54478;48.684;20.114;2023-04-25T00:48:51;18.63;;;11.38;;
63120;SDS011;54478;48.684;20.114;2023-04-25T00:51:20;15.52;;;10.13;;
63120;SDS011;54478;48.684;20.114;2023-04-25T00:53:49;18.92;;;11.50;;
63120;SDS011;54478;48.684;20.114;2023-04-25T00:56:17;16.08;;;10.63;;
63120;SDS011;54478;48.684;20.114;2023-04-25T00:58:45;18.60;;;11.75;;
63120;SDS011;54478;48.684;20.114;2023-04-25T01:01:13;18.40;;;10.82;;
63120;SDS011;54478;48.684;20.114;2023-04-25T01:03:41;19.60;;;11.43;;
63120;SDS011;54478;48.684;20.114;2023-04-25T01:06:10;15.60;;;10.00;;
63120;SDS011;54478;48.684;20.114;2023-04-25T01:08:39;15.82;;;10.68;;
63120;SDS011;54478;48.684;20.114;2023-04-25T01:11:07;13.80;;;9.07;;
63120;SDS011;54478;48.684;20.114;2023-04-25T01:13:35;16.80;;;9.48;;
63120;SDS011;54478;48.684;20.114;2023-04-25T01:16:03;19.85;;;11.38;;
63120;SDS011;54478;48.684;20.114;2023-04-25T01:18:32;22.30;;;11.43;;
63120;SDS011;54478;48.684;20.114;2023-04-25T01:21:30;17.45;;;11.38;;
63120;SDS011;54478;48.684;20.114;2023-04-25T01:23:54;19.98;;;11.82;;
63120;SDS011;54478;48.684;20.114;2023-04-25T01:26:20;16.92;;;11.55;;
63120;SDS011;54478;48.684;20.114;2023-04-25T01:28:49;15.93;;;9.70;;
63120;SDS011;54478;48.684;20.114;2023-04-25T01:31:18;19.65;;;11.38;;
63120;SDS011;54478;48.684;20.114;2023-04-25T01:33:47;18.40;;;10.52;;
63120;SDS011;54478;48.684;20.114;2023-04-25T01:36:15;15.75;;;10.38;;
63120;SDS011;54478;48.684;20.114;2023-04-25T01:38:43;17.95;;;10.95;;
63120;SDS011;54478;48.684;20.114;2023-04-25T01:41:11;17.15;;;11.55;;
63120;SDS011;54478;48.684;20.114;2023-04-25T01:43:40;20.02;;;10.70;;
63120;SDS011;54478;48.684;20.114;2023-04-25T01:46:08;19.50;;;10.98;;
63120;SDS011;54478;48.684;20.114;2023-04-25T01:48:37;16.55;;;10.23;;
63120;SDS011;54478;48.684;20.114;2023-04-25T01:51:05;17.95;;;10.50;;
63120;SDS011;54478;48.684;20.114;2023-04-25T01:53:33;16.65;;;10.57;;
63120;SDS011;54478;48.684;20.114;2023-04-25T01:56:01;15.48;;;11.02;;
63120;SDS011;54478;48.684;20.114;2023-04-25T01:58:29;18.42;;;10.05;;
63120;SDS011;54478;48.684;20.114;2023-04-25T02:00:58;14.18;;;8.82;;
63120;SDS011;54478;48.684;20.114;2023-04-25T02:03:26;14.23;;;9.68;;
63120;SDS011;54478;48.684;20.114;2023-04-25T02:05:54;16.52;;;9.68;;
63120;SDS011;54478;48.684;20.114;2023-04-25T02:08:22;16.02;;;9.48;;
63120;SDS011;54478;48.684;20.114;2023-04-25T02:10:50;16.42;;;9.98;;
63120;SDS011;54478;48.684;20.114;2023-04-25T02:13:18;14.48;;;9.60;;
63120;SDS011;54478;48.684;20.114;2023-04-25T02:15:46;20.13;;;10.25;;
63120;SDS011;54478;48.684;20.114;2023-04-25T02:18:14;14.75;;;8.63;;
63120;SDS011;54478;48.684;20.114;2023-04-25T02:20:45;15.07;;;9.27;;
63120;SDS011;54478;48.684;20.114;2023-04-25T02:23:11;13.02;;;8.55;;
63120;SDS011;54478;48.684;20.114;2023-04-25T02:25:39;14.43;;;8.88;;
63120;SDS011;54478;48.684;20.114;2023-04-25T02:28:07;11.60;;;7.43;;
63120;SDS011;54478;48.684;20.114;2023-04-25T02:30:35;11.48;;;7.95;;
63120;SDS011;54478;48.684;20.114;2023-04-25T02:33:03;17.30;;;8.25;;
63120;SDS011;54478;48.684;20.114;2023-04-25T02:35:31;15.00;;;8.80;;
63120;SDS011;54478;48.684;20.114;2023-04-25T02:37:59;16.25;;;8.60;;
63120;SDS011;54478;48.684;20.114;2023-04-25T02:40:27;14.98;;;8.25;;
63120;SDS011;54478;48.684;20.114;2023-04-25T02:42:55;14.95;;;9.07;;
63120;SDS011;54478;48.684;20.114;2023-04-25T02:45:23;14.15;;;8.38;;
63120;SDS011;54478;48.684;20.114;2023-04-25T02:47:51;10.07;;;5.45;;
63120;SDS011;54478;48.684;20.114;2023-04-25T02:50:19;11.98;;;6.57;;
63120;SDS011;54478;48.684;20.114;2023-04-25T02:52:47;11.75;;;6.75;;
63120;SDS011;54478;48.684;20.114;2023-04-25T02:55:15;15.95;;;9.30;;
63120;SDS011;54478;48.684;20.114;2023-04-25T02:57:43;9.38;;;5.85;;
63120;SDS011;54478;48.684;20.114;2023-04-25T03:00:12;13.85;;;7.78;;
63120;SDS011;54478;48.684;20.114;2023-04-25T03:02:42;11.50;;;7.03;;
63120;SDS011;54478;48.684;20.114;2023-04-25T03:05:10;11.20;;;6.60;;
63120;SDS011;54478;48.684;20.114;2023-04-25T03:07:38;12.13;;;7.25;;
63120;SDS011;54478;48.684;20.114;2023-04-25T03:10:07;14.70;;;8.27;;
63120;SDS011;54478;48.684;20.114;2023-04-25T03:12:35;43.65;;;22.30;;
63120;SDS011;54478;48.684;20.114;2023-04-25T03:15:03;15.18;;;8.63;;
63120;SDS011;54478;48.684;20.114;2023-04-25T03:17:32;29.98;;;16.75;;
63120;SDS011;54478;48.684;20.114;2023-04-25T03:20:00;27.27;;;16.45;;
63120;SDS011;54478;48.684;20.114;2023-04-25T03:22:25;17.25;;;10.45;;
63120;SDS011;54478;48.684;20.114;2023-04-25T03:24:53;20.73;;;8.27;;
63120;SDS011;54478;48.684;20.114;2023-04-25T03:27:21;32.50;;;12.43;;
63120;SDS011;54478;48.684;20.114;2023-04-25T03:29:49;14.60;;;7.05;;
63120;SDS011;54478;48.684;20.114;2023-04-25T03:32:17;13.07;;;7.57;;
63120;SDS011;54478;48.684;20.114;2023-04-25T03:34:45;12.18;;;6.32;;
63120;SDS011;54478;48.684;20.114;2023-04-25T03:37:13;11.50;;;5.85;;
63120;SDS011;54478;48.684;20.114;2023-04-25T03:39:41;16.63;;;9.02;;
63120;SDS011;54478;48.684;20.114;2023-04-25T03:42:09;17.63;;;12.07;;
63120;SDS011;54478;48.684;20.114;2023-04-25T03:44:37;18.33;;;10.90;;
63120;SDS011;54478;48.684;20.114;2023-04-25T03:47:05;15.23;;;8.18;;
63120;SDS011;54478;48.684;20.114;2023-04-25T03:49:34;12.85;;;7.75;;
63120;SDS011;54478;48.684;20.114;2023-04-25T03:52:02;12.10;;;6.72;;
63120;SDS011;54478;48.684;20.114;2023-04-25T03:54:30;10.10;;;6.07;;
63120;SDS011;54478;48.684;20.114;2023-04-25T03:56:58;9.80;;;5.95;;
63120;SDS011;54478;48.684;20.114;2023-04-25T03:59:26;9.05;;;5.35;;
63120;SDS011;54478;48.684;20.114;2023-04-25T04:01:54;12.93;;;6.60;;
63120;SDS011;54478;48.684;20.114;2023-04-25T04:04:23;22.83;;;12.43;;
63120;SDS011;54478;48.684;20.114;2023-04-25T04:06:51;16.05;;;8.20;;
63120;SDS011;54478;48.684;20.114;2023-04-25T04:09:20;16.15;;;8.50;;
63120;SDS011;54478;48.684;20.114;2023-04-25T04:11:48;23.65;;;13.93;;
63120;SDS011;54478;48.684;20.114;2023-04-25T04:14:16;17.38;;;10.65;;
63120;SDS011;54478;48.684;20.114;2023-04-25T04:16:44;15.45;;;9.23;;
63120;SDS011;54478;48.684;20.114;2023-04-25T04:19:12;18.25;;;9.13;;
63120;SDS011;54478;48.684;20.114;2023-04-25T04:21:40;10.07;;;5.55;;
63120;SDS011;54478;48.684;20.114;2023-04-25T04:24:08;10.85;;;6.80;;
63120;SDS011;54478;48.684;20.114;2023-04-25T04:26:38;8.23;;;4.80;;
63120;SDS011;54478;48.684;20.114;2023-04-25T04:29:06;7.65;;;3.90;;
63120;SDS011;54478;48.684;20.114;2023-04-25T04:31:34;7.72;;;4.25;;
63120;SDS011;54478;48.684;20.114;2023-04-25T04:34:03;6.07;;;4.03;;
63120;SDS011;54478;48.684;20.114;2023-04-25T04:36:32;10.20;;;5.05;;
63120;SDS011;54478;48.684;20.114;2023-04-25T04:39:00;15.93;;;7.78;;
63120;SDS011;54478;48.684;20.114;2023-04-25T04:41:29;6.15;;;3.60;;
63120;SDS011;54478;48.684;20.114;2023-04-25T04:43:58;6.63;;;4.13;;
63120;SDS011;54478;48.684;20.114;2023-04-25T04:46:26;8.25;;;4.50;;
63120;SDS011;54478;48.684;20.114;2023-04-25T04:48:55;8.65;;;4.95;;
63120;SDS011;54478;48.684;20.114;2023-04-25T04:51:24;5.10;;;3.72;;
63120;SDS011;54478;48.684;20.114;2023-04-25T04:53:52;6.47;;;3.92;;
63120;SDS011;54478;48.684;20.114;2023-04-25T04:56:20;6.90;;;3.92;;
63120;SDS011;54478;48.684;20.114;2023-04-25T04:58:51;7.88;;;5.20;;
63120;SDS011;54478;48.684;20.114;2023-04-25T05:01:20;10.10;;;4.60;;
63120;SDS011;54478;48.684;20.114;2023-04-25T05:03:48;8.88;;;5.93;;
63120;SDS011;54478;48.684;20.114;2023-04-25T05:06:17;5.57;;;4.38;;
63120;SDS011;54478;48.684;20.114;2023-04-25T05:08:46;7.25;;;4.30;;
63120;SDS011;54478;48.684;20.114;2023-04-25T05:11:14;6.13;;;4.30;;
63120;SDS011;54478;48.684;20.114;2023-04-25T05:13:42;8.25;;;4.53;;
63120;SDS011;54478;48.684;20.114;2023-04-25T05:16:10;8.52;;;4.57;;
63120;SDS011;54478;48.684;20.114;2023-04-25T05:18:38;10.50;;;4.90;;
63120;SDS011;54478;48.684;20.114;2023-04-25T05:21:04;7.05;;;4.03;;
63120;SDS011;54478;48.684;20.114;2023-04-25T05:23:30;7.05;;;4.63;;
63120;SDS011;54478;48.684;20.114;2023-04-25T05:25:58;7.10;;;4.38;;
63120;SDS011;54478;48.684;20.114;2023-04-25T05:28:26;8.07;;;4.32;;
63120;SDS011;54478;48.684;20.114;2023-04-25T05:30:54;8.85;;;6.05;;
63120;SDS011;54478;48.684;20.114;2023-04-25T05:33:22;8.40;;;6.18;;
63120;SDS011;54478;48.684;20.114;2023-04-25T05:35:50;7.65;;;4.40;;
63120;SDS011;54478;48.684;20.114;2023-04-25T05:38:19;5.18;;;3.95;;
63120;SDS011;54478;48.684;20.114;2023-04-25T05:40:47;5.82;;;3.60;;
63120;SDS011;54478;48.684;20.114;2023-04-25T05:43:15;9.70;;;3.72;;
63120;SDS011;54478;48.684;20.114;2023-04-25T05:45:43;4.70;;;2.80;;
63120;SDS011;54478;48.684;20.114;2023-04-25T05:48:11;5.07;;;3.53;;
63120;SDS011;54478;48.684;20.114;2023-04-25T05:50:39;4.28;;;2.88;;
63120;SDS011;54478;48.684;20.114;2023-04-25T05:53:08;5.32;;;3.35;;
63120;SDS011;54478;48.684;20.114;2023-04-25T05:55:37;4.63;;;2.97;;
63120;SDS011;54478;48.684;20.114;2023-04-25T05:58:05;6.80;;;4.68;;
63120;SDS011;54478;48.684;20.114;2023-04-25T06:00:34;7.07;;;4.88;;
63120;SDS011;54478;48.684;20.114;2023-04-25T06:03:03;20.73;;;10.55;;
63120;SDS011;54478;48.684;20.114;2023-04-25T06:05:31;20.60;;;9.52;;
63120;SDS011;54478;48.684;20.114;2023-04-25T06:07:57;10.63;;;6.07;;
63120;SDS011;54478;48.684;20.114;2023-04-25T06:10:25;13.38;;;7.13;;
63120;SDS011;54478;48.684;20.114;2023-04-25T06:12:53;11.77;;;6.65;;
63120;SDS011;54478;48.684;20.114;2023-04-25T06:15:21;15.82;;;10.13;;
63120;SDS011;54478;48.684;20.114;2023-04-25T06:17:49;16.60;;;9.98;;
63120;SDS011;54478;48.684;20.114;2023-04-25T06:20:18;10.38;;;7.03;;
63120;SDS011;54478;48.684;20.114;2023-04-25T06:22:44;11.20;;;5.50;;
63120;SDS011;54478;48.684;20.114;2023-04-25T06:25:12;7.90;;;4.53;;
63120;SDS011;54478;48.684;20.114;2023-04-25T06:27:38;8.60;;;4.47;;
63120;SDS011;54478;48.684;20.114;2023-04-25T06:30:06;8.15;;;5.47;;
63120;SDS011;54478;48.684;20.114;2023-04-25T06:32:34;15.20;;;9.25;;
63120;SDS011;54478;48.684;20.114;2023-04-25T06:35:03;17.00;;;7.20;;
63120;SDS011;54478;48.684;20.114;2023-04-25T06:37:31;10.88;;;5.82;;
63120;SDS011;54478;48.684;20.114;2023-04-25T06:39:59;11.68;;;5.95;;
63120;SDS011;54478;48.684;20.114;2023-04-25T06:42:27;9.65;;;6.50;;
63120;SDS011;54478;48.684;20.114;2023-04-25T06:44:56;9.60;;;6.28;;
63120;SDS011;54478;48.684;20.114;2023-04-25T06:47:24;6.50;;;4.30;;
63120;SDS011;54478;48.684;20.114;2023-04-25T06:49:52;14.50;;;8.48;;
63120;SDS011;54478;48.684;20.114;2023-04-25T06:52:20;14.65;;;7.20;;
63120;SDS011;54478;48.684;20.114;2023-04-25T06:54:48;17.58;;;10.52;;
63120;SDS011;54478;48.684;20.114;2023-04-25T06:57:16;11.80;;;5.88;;
63120;SDS011;54478;48.684;20.114;2023-04-25T06:59:45;6.75;;;2.78;;
63120;SDS011;54478;48.684;20.114;2023-04-25T07:02:14;4.60;;;2.58;;
63120;SDS011;54478;48.684;20.114;2023-04-25T07:04:42;4.93;;;2.05;;
63120;SDS011;54478;48.684;20.114;2023-04-25T07:07:10;4.10;;;2.70;;
63120;SDS011;54478;48.684;20.114;2023-04-25T07:09:38;3.85;;;1.95;;
63120;SDS011;54478;48.684;20.114;2023-04-25T07:12:06;4.40;;;2.58;;
63120;SDS011;54478;48.684;20.114;2023-04-25T07:14:34;3.17;;;1.90;;
63120;SDS011;54478;48.684;20.114;2023-04-25T07:17:02;2.88;;;1.80;;
63120;SDS011;54478;48.684;20.114;2023-04-25T07:19:30;4.47;;;2.45;;
63120;SDS011;54478;48.684;20.114;2023-04-25T07:21:55;4.88;;;3.25;;
63120;SDS011;54478;48.684;20.114;2023-04-25T07:24:23;5.00;;;2.70;;
63120;SDS011;54478;48.684;20.114;2023-04-25T07:26:51;4.90;;;2.67;;
63120;SDS011;54478;48.684;20.114;2023-04-25T07:29:19;4.18;;;2.28;;
63120;SDS011;54478;48.684;20.114;2023-04-25T07:31:47;1.75;;;1.38;;
63120;SDS011;54478;48.684;20.114;2023-04-25T07:34:15;4.18;;;2.15;;
63120;SDS011;54478;48.684;20.114;2023-04-25T07:36:43;3.72;;;2.22;;
63120;SDS011;54478;48.684;20.114;2023-04-25T07:39:14;4.80;;;3.10;;
63120;SDS011;54478;48.684;20.114;2023-04-25T07:41:42;0.98;;;0.88;;
63120;SDS011;54478;48.684;20.114;2023-04-25T07:44:10;4.07;;;3.17;;
63120;SDS011;54478;48.684;20.114;2023-04-25T07:46:38;3.92;;;1.95;;
63120;SDS011;54478;48.684;20.114;2023-04-25T07:49:55;8.45;;;5.05;;
63120;SDS011;54478;48.684;20.114;2023-04-25T07:52:24;5.70;;;3.90;;
63120;SDS011;54478;48.684;20.114;2023-04-25T07:54:52;4.10;;;3.00;;
63120;SDS011;54478;48.684;20.114;2023-04-25T07:57:20;7.40;;;5.10;;
63120;SDS011;54478;48.684;20.114;2023-04-25T07:59:48;4.70;;;3.05;;
63120;SDS011;54478;48.684;20.114;2023-04-25T08:02:16;5.03;;;2.90;;
63120;SDS011;54478;48.684;20.114;2023-04-25T08:04:45;3.92;;;3.00;;
63120;SDS011;54478;48.684;20.114;2023-04-25T08:07:13;5.93;;;3.80;;
63120;SDS011;54478;48.684;20.114;2023-04-25T08:09:41;4.38;;;3.15;;
63120;SDS011;54478;48.684;20.114;2023-04-25T08:12:09;7.53;;;3.55;;
63120;SDS011;54478;48.684;20.114;2023-04-25T08:14:37;2.67;;;2.03;;
63120;SDS011;54478;48.684;20.114;2023-04-25T08:17:07;3.47;;;1.58;;
63120;SDS011;54478;48.684;20.114;2023-04-25T08:19:35;1.90;;;1.30;;
63120;SDS011;54478;48.684;20.114;2023-04-25T08:22:03;8.68;;;3.75;;
63120;SDS011;54478;48.684;20.114;2023-04-25T08:24:31;2.40;;;1.70;;
63120;SDS011;54478;48.684;20.114;2023-04-25T08:26:59;2.50;;;1.75;;
63120;SDS011;54478;48.684;20.114;2023-04-25T08:29:28;13.32;;;3.97;;
63120;SDS011;54478;48.684;20.114;2023-04-25T08:31:57;3.17;;;1.88;;
63120;SDS011;54478;48.684;20.114;2023-04-25T08:34:25;6.57;;;2.25;;
63120;SDS011;54478;48.684;20.114;2023-04-25T08:36:53;5.22;;;2.60;;
63120;SDS011;54478;48.684;20.114;2023-04-25T08:39:21;7.22;;;2.33;;
63120;SDS011;54478;48.684;20.114;2023-04-25T08:41:50;7.63;;;2.72;;
63120;SDS011;54478;48.684;20.114;2023-04-25T08:44:18;3.22;;;1.77;;
63120;SDS011;54478;48.684;20.114;2023-04-25T08:46:47;3.55;;;1.70;;
63120;SDS011;54478;48.684;20.114;2023-04-25T08:49:15;5.43;;;2.97;;
63120;SDS011;54478;48.684;20.114;2023-04-25T08:51:45;5.38;;;1.90;;
63120;SDS011;54478;48.684;20.114;2023-04-25T08:54:17;4.40;;;2.40;;
63120;SDS011;54478;48.684;20.114;2023-04-25T08:56:47;2.70;;;1.97;;
63120;SDS011;54478;48.684;20.114;2023-04-25T08:59:15;4.93;;;2.58;;
63120;SDS011;54478;48.684;20.114;2023-04-25T09:01:45;3.50;;;2.47;;
63120;SDS011;54478;48.684;20.114;2023-04-25T09:04:13;5.28;;;2.58;;
63120;SDS011;54478;48.684;20.114;2023-04-25T09:06:41;8.27;;;5.00;;
63120;SDS011;54478;48.684;20.114;2023-04-25T09:09:09;4.18;;;2.63;;
63120;SDS011;54478;48.684;20.114;2023-04-25T09:11:38;10.50;;;4.20;;
63120;SDS011;54478;48.684;20.114;2023-04-25T09:14:17;8.90;;;4.47;;
63120;SDS011;54478;48.684;20.114;2023-04-25T09:21:48;2.22;;;1.58;;
63120;SDS011;54478;48.684;20.114;2023-04-25T09:24:28;9.98;;;4.63;;
63120;SDS011;54478;48.684;20.114;2023-04-25T09:26:55;6.32;;;2.80;;
63120;SDS011;54478;48.684;20.114;2023-04-25T09:29:30;3.13;;;2.13;;
63120;SDS011;54478;48.684;20.114;2023-04-25T09:32:15;3.60;;;2.33;;
63120;SDS011;54478;48.684;20.114;2023-04-25T09:34:45;2.28;;;1.33;;
63120;SDS011;54478;48.684;20.114;2023-04-25T09:37:16;7.75;;;3.25;;
63120;SDS011;54478;48.684;20.114;2023-04-25T09:39:45;1.92;;;1.40;;
63120;SDS011;54478;48.684;20.114;2023-04-25T09:42:15;3.63;;;1.90;;
63120;SDS011;54478;48.684;20.114;2023-04-25T09:44:43;4.50;;;2.22;;
63120;SDS011;54478;48.684;20.114;2023-04-25T09:47:12;10.00;;;3.05;;
63120;SDS011;54478;48.684;20.114;2023-04-25T09:49:41;7.32;;;3.40;;
63120;SDS011;54478;48.684;20.114;2023-04-25T09:52:13;5.75;;;2.40;;
63120;SDS011;54478;48.684;20.114;2023-04-25T09:57:11;4.22;;;1.90;;
63120;SDS011;54478;48.684;20.114;2023-04-25T09:59:44;1.27;;;1.15;;
63120;SDS011;54478;48.684;20.114;2023-04-25T10:02:13;2.60;;;1.80;;
63120;SDS011;54478;48.684;20.114;2023-04-25T10:04:39;2.97;;;2.10;;
63120;SDS011;54478;48.684;20.114;2023-04-25T10:07:08;5.78;;;2.92;;
63120;SDS011;54478;48.684;20.114;2023-04-25T10:09:38;12.48;;;4.32;;
63120;SDS011;54478;48.684;20.114;2023-04-25T10:12:07;5.30;;;2.50;;
63120;SDS011;54478;48.684;20.114;2023-04-25T10:14:36;2.95;;;2.10;;
63120;SDS011;54478;48.684;20.114;2023-04-25T10:17:04;10.23;;;4.10;;
63120;SDS011;54478;48.684;20.114;2023-04-25T10:19:33;16.75;;;4.68;;
63120;SDS011;54478;48.684;20.114;2023-04-25T10:22:07;4.05;;;2.17;;
63120;SDS011;54478;48.684;20.114;2023-04-25T10:24:34;2.80;;;2.20;;
63120;SDS011;54478;48.684;20.114;2023-04-25T10:27:04;2.15;;;1.63;;
63120;SDS011;54478;48.684;20.114;2023-04-25T10:29:32;1.30;;;1.20;;
63120;SDS011;54478;48.684;20.114;2023-04-25T10:32:00;3.25;;;2.20;;
63120;SDS011;54478;48.684;20.114;2023-04-25T10:34:41;8.30;;;3.65;;
63120;SDS011;54478;48.684;20.114;2023-04-25T10:37:09;5.32;;;2.97;;
63120;SDS011;54478;48.684;20.114;2023-04-25T10:39:37;14.27;;;6.40;;
63120;SDS011;54478;48.684;20.114;2023-04-25T10:42:06;5.68;;;4.00;;
63120;SDS011;54478;48.684;20.114;2023-04-25T10:44:39;9.18;;;4.80;;
63120;SDS011;54478;48.684;20.114;2023-04-25T10:47:08;4.10;;;2.00;;
63120;SDS011;54478;48.684;20.114;2023-04-25T10:49:38;4.25;;;2.65;;
63120;SDS011;54478;48.684;20.114;2023-04-25T10:52:12;3.27;;;2.27;;
63120;SDS011;54478;48.684;20.114;2023-04-25T10:54:41;3.78;;;2.58;;
63120;SDS011;54478;48.684;20.114;2023-04-25T10:57:25;4.22;;;2.42;;
63120;SDS011;54478;48.684;20.114;2023-04-25T10:59:51;4.90;;;2.92;;
63120;SDS011;54478;48.684;20.114;2023-04-25T11:02:17;8.18;;;3.92;;
63120;SDS011;54478;48.684;20.114;2023-04-25T11:04:45;5.60;;;3.72;;
63120;SDS011;54478;48.684;20.114;2023-04-25T11:07:16;5.38;;;3.35;;
63120;SDS011;54478;48.684;20.114;2023-04-25T11:09:48;5.95;;;2.63;;
63120;SDS011;54478;48.684;20.114;2023-04-25T11:12:16;3.65;;;2.40;;
63120;SDS011;54478;48.684;20.114;2023-04-25T11:14:45;7.93;;;2.35;;
63120;SDS011;54478;48.684;20.114;2023-04-25T11:17:13;7.32;;;3.50;;
63120;SDS011;54478;48.684;20.114;2023-04-25T11:19:39;8.98;;;4.57;;
63120;SDS011;54478;48.684;20.114;2023-04-25T11:22:05;4.13;;;2.30;;
63120;SDS011;54478;48.684;20.114;2023-04-25T11:24:35;4.07;;;2.17;;
63120;SDS011;54478;48.684;20.114;2023-04-25T11:27:03;6.32;;;2.30;;
63120;SDS011;54478;48.684;20.114;2023-04-25T11:29:33;3.60;;;2.10;;
63120;SDS011;54478;48.684;20.114;2023-04-25T11:32:01;1.85;;;1.23;;
63120;SDS011;54478;48.684;20.114;2023-04-25T11:34:28;3.88;;;2.00;;
63120;SDS011;54478;48.684;20.114;2023-04-25T11:36:56;3.30;;;1.73;;
63120;SDS011;54478;48.684;20.114;2023-04-25T11:39:24;2.97;;;1.80;;
63120;SDS011;54478;48.684;20.114;2023-04-25T11:41:54;3.08;;;1.55;;
63120;SDS011;54478;48.684;20.114;2023-04-25T11:44:20;6.13;;;2.80;;
63120;SDS011;54478;48.684;20.114;2023-04-25T11:46:48;20.83;;;9.43;;
63120;SDS011;54478;48.684;20.114;2023-04-25T11:49:14;7.70;;;4.03;;
63120;SDS011;54478;48.684;20.114;2023-04-25T11:51:44;10.35;;;4.32;;
63120;SDS011;54478;48.684;20.114;2023-04-25T11:54:12;3.92;;;2.15;;
63120;SDS011;54478;48.684;20.114;2023-04-25T11:56:41;3.15;;;1.90;;
63120;SDS011;54478;48.684;20.114;2023-04-25T11:59:10;6.53;;;1.98;;
63120;SDS011;54478;48.684;20.114;2023-04-25T12:01:39;3.17;;;1.88;;
63120;SDS011;54478;48.684;20.114;2023-04-25T12:04:14;4.20;;;1.63;;
63120;SDS011;54478;48.684;20.114;2023-04-25T12:06:43;5.10;;;2.08;;
63120;SDS011;54478;48.684;20.114;2023-04-25T12:09:10;2.78;;;1.58;;
63120;SDS011;54478;48.684;20.114;2023-04-25T12:14:10;3.83;;;1.30;;
63120;SDS011;54478;48.684;20.114;2023-04-25T12:16:46;1.83;;;1.30;;
63120;SDS011;54478;48.684;20.114;2023-04-25T12:19:14;2.83;;;1.50;;
63120;SDS011;54478;48.684;20.114;2023-04-25T12:21:43;3.17;;;1.95;;
63120;SDS011;54478;48.684;20.114;2023-04-25T12:24:16;4.38;;;2.60;;
63120;SDS011;54478;48.684;20.114;2023-04-25T12:26:51;3.45;;;2.17;;
63120;SDS011;54478;48.684;20.114;2023-04-25T12:29:27;5.32;;;3.35;;
63120;SDS011;54478;48.684;20.114;2023-04-25T12:31:56;5.18;;;3.25;;
63120;SDS011;54478;48.684;20.114;2023-04-25T12:34:22;5.38;;;3.00;;
63120;SDS011;54478;48.684;20.114;2023-04-25T12:36:50;6.78;;;3.25;;
63120;SDS011;54478;48.684;20.114;2023-04-25T12:39:20;4.97;;;2.25;;
63120;SDS011;54478;48.684;20.114;2023-04-25T12:41:49;2.92;;;1.60;;
63120;SDS011;54478;48.684;20.114;2023-04-25T12:44:18;2.25;;;1.52;;
63120;SDS011;54478;48.684;20.114;2023-04-25T12:46:46;2.88;;;1.90;;
63120;SDS011;54478;48.684;20.114;2023-04-25T12:49:11;3.85;;;2.05;;
63120;SDS011;54478;48.684;20.114;2023-04-25T12:51:39;1.33;;;0.95;;
63120;SDS011;54478;48.684;20.114;2023-04-25T12:54:09;2.72;;;1.73;;
63120;SDS011;54478;48.684;20.114;2023-04-25T12:56:38;3.67;;;2.17;;
63120;SDS011;54478;48.684;20.114;2023-04-25T12:59:06;1.98;;;1.63;;
63120;SDS011;54478;48.684;20.114;2023-04-25T13:01:34;1.00;;;1.00;;
63120;SDS011;54478;48.684;20.114;2023-04-25T13:04:02;1.25;;;1.10;;
63120;SDS011;54478;48.684;20.114;2023-04-25T13:06:30;1.92;;;1.45;;
63120;SDS011;54478;48.684;20.114;2023-04-25T13:08:58;2.60;;;1.60;;
63120;SDS011;54478;48.684;20.114;2023-04-25T13:11:26;2.47;;;1.70;;
63120;SDS011;54478;48.684;20.114;2023-04-25T13:13:55;3.70;;;2.30;;
63120;SDS011;54478;48.684;20.114;2023-04-25T13:16:23;2.58;;;1.80;;
63120;SDS011;54478;48.684;20.114;2023-04-25T13:18:51;3.70;;;2.20;;
63120;SDS011;54478;48.684;20.114;2023-04-25T13:21:19;2.22;;;1.60;;
63120;SDS011;54478;48.684;20.114;2023-04-25T13:23:47;5.30;;;1.77;;
63120;SDS011;54478;48.684;20.114;2023-04-25T13:26:15;1.92;;;1.65;;
63120;SDS011;54478;48.684;20.114;2023-04-25T13:28:43;4.45;;;3.05;;
63120;SDS011;54478;48.684;20.114;2023-04-25T13:31:11;3.55;;;2.20;;
63120;SDS011;54478;48.684;20.114;2023-04-25T13:33:39;3.40;;;2.15;;
63120;SDS011;54478;48.684;20.114;2023-04-25T13:36:07;3.20;;;2.20;;
63120;SDS011;54478;48.684;20.114;2023-04-25T13:38:35;4.55;;;2.65;;
63120;SDS011;54478;48.684;20.114;2023-04-25T13:41:03;3.60;;;2.22;;
63120;SDS011;54478;48.684;20.114;2023-04-25T13:43:32;4.97;;;2.17;;
63120;SDS011;54478;48.684;20.114;2023-04-25T13:46:01;2.92;;;1.60;;
63120;SDS011;54478;48.684;20.114;2023-04-25T13:48:27;1.60;;;1.38;;
63120;SDS011;54478;48.684;20.114;2023-04-25T13:50:55;2.90;;;1.90;;
63120;SDS011;54478;48.684;20.114;2023-04-25T13:53:23;4.28;;;1.40;;
63120;SDS011;54478;48.684;20.114;2023-04-25T13:55:51;4.18;;;1.20;;
63120;SDS011;54478;48.684;20.114;2023-04-25T13:58:19;1.10;;;1.00;;
63120;SDS011;54478;48.684;20.114;2023-04-25T14:00:48;2.67;;;2.15;;
63120;SDS011;54478;48.684;20.114;2023-04-25T14:03:16;3.10;;;1.50;;
63120;SDS011;54478;48.684;20.114;2023-04-25T14:05:44;2.17;;;1.58;;
63120;SDS011;54478;48.684;20.114;2023-04-25T14:08:12;1.48;;;1.20;;
63120;SDS011;54478;48.684;20.114;2023-04-25T14:10:40;1.30;;;1.20;;
63120;SDS011;54478;48.684;20.114;2023-04-25T14:13:08;1.27;;;1.05;;
63120;SDS011;54478;48.684;20.114;2023-04-25T14:15:36;1.73;;;1.25;;
63120;SDS011;54478;48.684;20.114;2023-04-25T14:18:04;5.85;;;1.50;;
63120;SDS011;54478;48.684;20.114;2023-04-25T14:20:33;3.22;;;1.30;;
63120;SDS011;54478;48.684;20.114;2023-04-25T14:23:02;1.83;;;1.00;;
63120;SDS011;54478;48.684;20.114;2023-04-25T14:25:30;1.73;;;0.95;;
63120;SDS011;54478;48.684;20.114;2023-04-25T14:27:59;1.52;;;1.00;;
63120;SDS011;54478;48.684;20.114;2023-04-25T14:30:27;1.15;;;0.90;;
63120;SDS011;54478;48.684;20.114;2023-04-25T14:32:55;1.77;;;1.17;;
63120;SDS011;54478;48.684;20.114;2023-04-25T14:35:23;1.27;;;1.10;;
63120;SDS011;54478;48.684;20.114;2023-04-25T14:37:52;2.03;;;1.45;;
63120;SDS011;54478;48.684;20.114;2023-04-25T14:40:20;2.65;;;1.25;;
63120;SDS011;54478;48.684;20.114;2023-04-25T14:42:50;1.63;;;1.33;;
63120;SDS011;54478;48.684;20.114;2023-04-25T14:45:19;1.90;;;1.48;;
63120;SDS011;54478;48.684;20.114;2023-04-25T14:47:44;2.47;;;1.60;;